Time;durP1;ratioP1;P1;durP2;ratioP2;P2;SDS_P1;SDS_P2;PMS_P1;PMS_P2;Temp;Humidity;BMP_temperature;BMP_pressure;BME280_temperature;BME280_humidity;BME280_pressure;Samples;Min_cycle;Max_cycle;Signal;HPM_P1;HPM_P2
2023/04/27 00:01:11;;;;;;;10.93;4.78;;;;;;;;;;4989288;28;20212;-73
2023/04/27 00:03:39;;;;;;;11.40;5.13;;;;;;;;;;4994755;28;20214;-74
2023/04/27 00:06:07;;;;;;;11.52;5.13;;;;;;;;;;4985238;28;20044;-73
2023/04/27 00:08:32;;;;;;;8.80;4.60;;;;;;;;;;4987909;28;20102;-73
2023/04/27 00:10:58;;;;;;;8.30;4.22;;;;;;;;;;4988485;28;20221;-74
2023/04/27 00:13:23;;;;;;;8.30;4.50;;;;;;;;;;4987542;28;20045;-73
2023/04/27 00:15:51;;;;;;;7.50;4.35;;;;;;;;;;4986735;28;20037;-74
2023/04/27 00:18:16;;;;;;;9.35;4.57;;;;;;;;;;5007014;28;20038;-74
2023/04/27 00:20:42;;;;;;;10.38;4.03;;;;;;;;;;5018321;28;20505;-73
2023/04/27 00:23:07;;;;;;;11.98;4.80;;;;;;;;;;5006096;28;20434;-73
2023/04/27 00:25:35;;;;;;;9.15;4.20;;;;;;;;;;5019750;28;20797;-73
2023/04/27 00:28:00;;;;;;;8.45;4.50;;;;;;;;;;4988867;28;20045;-73
2023/04/27 00:30:25;;;;;;;7.80;4.00;;;;;;;;;;4987891;28;21019;-74
2023/04/27 00:32:51;;;;;;;9.75;4.45;;;;;;;;;;4992530;28;20374;-74
2023/04/27 00:35:16;;;;;;;9.68;4.80;;;;;;;;;;4988097;28;20104;-74
2023/04/27 00:37:44;;;;;;;10.65;5.03;;;;;;;;;;5021074;28;20044;-73
2023/04/27 00:40:12;;;;;;;9.27;4.72;;;;;;;;;;4988413;28;20356;-73
2023/04/27 00:42:40;;;;;;;9.68;4.63;;;;;;;;;;4988402;28;20553;-73
2023/04/27 00:45:05;;;;;;;7.88;5.03;;;;;;;;;;4992628;28;20036;-74
2023/04/27 00:47:31;;;;;;;6.47;4.32;;;;;;;;;;4988316;28;20536;-73
2023/04/27 00:49:57;;;;;;;10.93;4.95;;;;;;;;;;4986533;28;20041;-74
2023/04/27 00:52:22;;;;;;;8.02;4.75;;;;;;;;;;5018636;28;20588;-73
2023/04/27 00:54:49;;;;;;;6.70;4.50;;;;;;;;;;4987702;28;20044;-73
2023/04/27 00:57:15;;;;;;;7.47;4.53;;;;;;;;;;4986028;28;20490;-74
2023/04/27 00:59:40;;;;;;;7.75;4.68;;;;;;;;;;5015849;28;20096;-73
2023/04/27 01:02:06;;;;;;;9.30;4.47;;;;;;;;;;4986525;28;20029;-73
2023/04/27 01:04:31;;;;;;;9.82;4.50;;;;;;;;;;4988008;28;20061;-72
2023/04/27 01:06:57;;;;;;;7.43;4.38;;;;;;;;;;5018124;28;20471;-73
2023/04/27 01:09:22;;;;;;;6.35;3.95;;;;;;;;;;4985816;28;20080;-73
2023/04/27 01:11:47;;;;;;;9.73;4.15;;;;;;;;;;4985495;28;20478;-73
2023/04/27 01:14:13;;;;;;;11.80;5.07;;;;;;;;;;4992497;28;20052;-73
2023/04/27 01:16:39;;;;;;;9.20;4.18;;;;;;;;;;4987105;28;20726;-73
2023/04/27 01:19:05;;;;;;;9.60;4.68;;;;;;;;;;5018266;28;20201;-73
2023/04/27 01:21:33;;;;;;;7.45;4.10;;;;;;;;;;4987717;28;20033;-74
2023/04/27 01:23:58;;;;;;;11.77;4.43;;;;;;;;;;4987745;28;20045;-72
2023/04/27 01:26:23;;;;;;;5.80;4.03;;;;;;;;;;4992178;28;20041;-71
2023/04/27 01:28:51;;;;;;;9.68;4.57;;;;;;;;;;4988920;28;21170;-72
2023/04/27 01:31:16;;;;;;;7.68;4.32;;;;;;;;;;4987885;28;20163;-72
2023/04/27 01:33:41;;;;;;;8.65;4.43;;;;;;;;;;5019649;28;20293;-73
2023/04/27 01:36:07;;;;;;;6.97;4.40;;;;;;;;;;4989565;28;22632;-73
2023/04/27 01:38:33;;;;;;;7.35;4.20;;;;;;;;;;4990992;28;20041;-73
2023/04/27 01:41:00;;;;;;;7.68;4.45;;;;;;;;;;4989400;28;20037;-73
2023/04/27 01:43:26;;;;;;;7.25;4.20;;;;;;;;;;4989629;28;20529;-73
2023/04/27 01:45:51;;;;;;;12.10;4.55;;;;;;;;;;4988663;28;20144;-74
2023/04/27 01:48:19;;;;;;;8.98;4.50;;;;;;;;;;5013047;28;20109;-73
2023/04/27 01:50:44;;;;;;;11.75;4.40;;;;;;;;;;4991418;28;20437;-72
2023/04/27 01:53:10;;;;;;;14.60;4.80;;;;;;;;;;4993920;28;20034;-75
2023/04/27 01:55:35;;;;;;;9.88;4.65;;;;;;;;;;4991080;28;20410;-73
2023/04/27 01:58:00;;;;;;;10.40;4.50;;;;;;;;;;4991233;28;20086;-72
2023/04/27 02:00:28;;;;;;;8.80;4.35;;;;;;;;;;4990164;28;20230;-72
2023/04/27 02:02:56;;;;;;;10.57;4.70;;;;;;;;;;4989072;28;20292;-72
2023/04/27 02:05:23;;;;;;;6.28;4.22;;;;;;;;;;4993525;28;20163;-72
2023/04/27 02:07:49;;;;;;;13.05;4.88;;;;;;;;;;4990327;28;20045;-73
2023/04/27 02:10:15;;;;;;;11.38;4.55;;;;;;;;;;5021610;28;20128;-73
2023/04/27 02:12:40;;;;;;;9.75;4.95;;;;;;;;;;5023860;28;20095;-73
2023/04/27 02:15:06;;;;;;;7.25;4.65;;;;;;;;;;5020019;28;20045;-73
2023/04/27 02:17:35;;;;;;;9.60;5.35;;;;;;;;;;4992202;28;20499;-73
2023/04/27 02:20:05;;;;;;;10.38;4.80;;;;;;;;;;4988250;28;20038;-73
2023/04/27 02:22:30;;;;;;;7.57;4.65;;;;;;;;;;4986720;28;20361;-73
2023/04/27 02:24:56;;;;;;;8.77;4.97;;;;;;;;;;4987380;28;20035;-74
2023/04/27 02:27:24;;;;;;;13.02;4.93;;;;;;;;;;4990392;28;20026;-73
2023/04/27 02:29:49;;;;;;;9.27;4.93;;;;;;;;;;5019759;28;20284;-73
2023/04/27 02:32:14;;;;;;;11.55;5.50;;;;;;;;;;4987396;28;20067;-72
2023/04/27 02:34:40;;;;;;;8.77;5.35;;;;;;;;;;4987856;28;20127;-74
2023/04/27 02:37:05;;;;;;;9.10;4.88;;;;;;;;;;4990237;28;20560;-72
2023/04/27 02:39:30;;;;;;;10.10;5.80;;;;;;;;;;5021418;28;20065;-72
2023/04/27 02:41:55;;;;;;;11.85;5.65;;;;;;;;;;5019929;28;20167;-72
2023/04/27 02:44:23;;;;;;;9.45;5.47;;;;;;;;;;5005653;28;20151;-73
2023/04/27 02:46:49;;;;;;;7.90;5.53;;;;;;;;;;4989537;28;21799;-74
2023/04/27 02:49:14;;;;;;;11.90;6.07;;;;;;;;;;4990377;28;20056;-73
2023/04/27 02:51:42;;;;;;;11.63;6.38;;;;;;;;;;4991073;28;20457;-73
2023/04/27 02:54:08;;;;;;;11.40;6.82;;;;;;;;;;4989740;28;20298;-73
2023/04/27 02:56:33;;;;;;;13.25;7.47;;;;;;;;;;4990267;28;20048;-73
2023/04/27 02:58:58;;;;;;;11.50;7.53;;;;;;;;;;4989589;28;20080;-73
2023/04/27 03:01:24;;;;;;;11.60;7.47;;;;;;;;;;5019785;28;20460;-73
2023/04/27 03:03:49;;;;;;;15.82;8.75;;;;;;;;;;4989205;28;20271;-73
2023/04/27 03:06:14;;;;;;;16.27;8.27;;;;;;;;;;4998691;28;20132;-73
2023/04/27 03:08:40;;;;;;;19.30;8.50;;;;;;;;;;4991963;28;20517;-73
2023/04/27 03:11:05;;;;;;;15.25;7.78;;;;;;;;;;4987749;28;20033;-72
2023/04/27 03:13:34;;;;;;;14.73;8.38;;;;;;;;;;4989790;28;20449;-75
2023/04/27 03:16:02;;;;;;;17.77;9.00;;;;;;;;;;4987429;28;20353;-74
2023/04/27 03:18:27;;;;;;;17.70;8.27;;;;;;;;;;4991644;28;20222;-73
2023/04/27 03:20:53;;;;;;;16.48;8.98;;;;;;;;;;4988363;28;20029;-72
2023/04/27 03:23:18;;;;;;;16.60;8.57;;;;;;;;;;4987555;28;20608;-74
2023/04/27 03:25:46;;;;;;;16.73;8.40;;;;;;;;;;4989298;28;20124;-73
2023/04/27 03:28:11;;;;;;;17.85;8.48;;;;;;;;;;4989028;28;20605;-73
2023/04/27 03:30:38;;;;;;;18.35;8.32;;;;;;;;;;4988399;28;20095;-73
2023/04/27 03:33:03;;;;;;;17.45;8.10;;;;;;;;;;4986064;28;20044;-73
2023/04/27 03:35:28;;;;;;;17.13;8.02;;;;;;;;;;4986182;28;20036;-74
2023/04/27 03:37:53;;;;;;;17.02;8.55;;;;;;;;;;4988284;28;20258;-74
2023/04/27 03:40:21;;;;;;;13.30;8.30;;;;;;;;;;4987420;28;20159;-74
2023/04/27 03:42:48;;;;;;;12.20;7.65;;;;;;;;;;4987398;28;20034;-74
2023/04/27 03:45:15;;;;;;;19.10;7.70;;;;;;;;;;4989377;28;20745;-73
2023/04/27 03:47:40;;;;;;;21.45;9.10;;;;;;;;;;4987418;28;20521;-74
2023/04/27 03:50:06;;;;;;;29.10;12.50;;;;;;;;;;4988009;28;20066;-74
2023/04/27 03:52:31;;;;;;;22.70;11.90;;;;;;;;;;5018137;28;20068;-74
2023/04/27 03:54:56;;;;;;;29.10;11.85;;;;;;;;;;4987048;28;20037;-74
2023/04/27 03:57:21;;;;;;;24.02;12.05;;;;;;;;;;4983982;28;20075;-74
2023/04/27 03:59:47;;;;;;;28.45;12.88;;;;;;;;;;5019251;28;20682;-74
2023/04/27 04:02:12;;;;;;;27.63;13.48;;;;;;;;;;4991435;28;20133;-73
2023/04/27 04:04:37;;;;;;;36.15;13.38;;;;;;;;;;4987841;28;20029;-74
2023/04/27 04:07:02;;;;;;;40.25;14.88;;;;;;;;;;4988190;28;20046;-73
2023/04/27 04:09:28;;;;;;;31.42;14.88;;;;;;;;;;4991887;28;20349;-72
2023/04/27 04:11:53;;;;;;;32.45;15.40;;;;;;;;;;4993795;28;20442;-73
2023/04/27 04:14:18;;;;;;;35.60;15.75;;;;;;;;;;4994137;28;20179;-73
2023/04/27 04:16:43;;;;;;;36.97;16.38;;;;;;;;;;5017084;28;20411;-72
2023/04/27 04:19:09;;;;;;;32.22;14.98;;;;;;;;;;4984308;28;20142;-73
2023/04/27 04:21:38;;;;;;;25.13;13.30;;;;;;;;;;4986862;28;20436;-74
2023/04/27 04:24:04;;;;;;;25.05;11.85;;;;;;;;;;4984361;28;20115;-73
2023/04/27 04:26:30;;;;;;;26.50;12.73;;;;;;;;;;4986225;28;20312;-73
2023/04/27 04:28:56;;;;;;;32.15;13.93;;;;;;;;;;5016721;28;20533;-73
2023/04/27 04:31:21;;;;;;;26.17;13.57;;;;;;;;;;4985989;28;20041;-73
2023/04/27 04:33:50;;;;;;;28.40;14.57;;;;;;;;;;4987970;28;20041;-74
2023/04/27 04:36:15;;;;;;;36.35;16.75;;;;;;;;;;4986949;28;20351;-74
2023/04/27 04:38:40;;;;;;;30.67;13.57;;;;;;;;;;4983840;28;20037;-75
2023/04/27 04:41:06;;;;;;;18.25;10.55;;;;;;;;;;4984119;28;20217;-73
2023/04/27 04:43:31;;;;;;;20.65;11.50;;;;;;;;;;4985993;28;20033;-74
2023/04/27 04:45:57;;;;;;;21.52;11.68;;;;;;;;;;5017394;28;20374;-74
2023/04/27 04:48:22;;;;;;;24.63;11.05;;;;;;;;;;4989083;28;20132;-75
2023/04/27 04:50:48;;;;;;;20.95;10.18;;;;;;;;;;4987504;28;20033;-74
2023/04/27 04:53:13;;;;;;;23.30;11.02;;;;;;;;;;5017905;28;20119;-73
2023/04/27 04:55:38;;;;;;;19.08;11.02;;;;;;;;;;4986555;28;20497;-74
2023/04/27 04:58:05;;;;;;;17.58;9.60;;;;;;;;;;5017054;28;20258;-73
2023/04/27 05:00:32;;;;;;;22.33;10.73;;;;;;;;;;4989880;28;20037;-74
2023/04/27 05:02:57;;;;;;;21.70;9.65;;;;;;;;;;4988811;28;20037;-74
2023/04/27 05:05:25;;;;;;;21.35;10.50;;;;;;;;;;5017179;28;20388;-74
2023/04/27 05:07:53;;;;;;;19.33;9.02;;;;;;;;;;5019551;28;20048;-73
2023/04/27 05:10:18;;;;;;;17.98;8.93;;;;;;;;;;4991487;28;20574;-73
2023/04/27 05:12:46;;;;;;;21.45;8.93;;;;;;;;;;4992876;28;20449;-74
2023/04/27 05:15:11;;;;;;;18.65;9.18;;;;;;;;;;4992015;28;20041;-74
2023/04/27 05:17:39;;;;;;;18.63;7.78;;;;;;;;;;5025101;28;20103;-71
2023/04/27 05:20:05;;;;;;;16.70;7.63;;;;;;;;;;4989271;28;20193;-72
2023/04/27 05:22:30;;;;;;;16.42;7.18;;;;;;;;;;4995306;28;20080;-72
2023/04/27 05:24:59;;;;;;;14.55;6.70;;;;;;;;;;5001228;28;20049;-71
2023/04/27 05:27:24;;;;;;;11.68;6.25;;;;;;;;;;4989642;28;20303;-71
2023/04/27 05:29:49;;;;;;;14.02;5.30;;;;;;;;;;4988163;28;20159;-72
2023/04/27 05:32:15;;;;;;;12.57;5.40;;;;;;;;;;4989005;28;20041;-71
2023/04/27 05:34:43;;;;;;;11.90;5.47;;;;;;;;;;4986686;28;20045;-71
2023/04/27 05:37:12;;;;;;;16.10;5.97;;;;;;;;;;4988630;28;20826;-70
2023/04/27 05:39:38;;;;;;;14.93;6.05;;;;;;;;;;4994897;28;20033;-72
2023/04/27 05:42:03;;;;;;;14.82;5.50;;;;;;;;;;4988927;28;20124;-71
2023/04/27 05:44:31;;;;;;;17.73;6.32;;;;;;;;;;5021497;28;20140;-71
2023/04/27 05:46:56;;;;;;;15.00;6.28;;;;;;;;;;4992684;28;20057;-72
2023/04/27 05:49:21;;;;;;;15.35;5.97;;;;;;;;;;4992644;28;20947;-71
2023/04/27 05:51:50;;;;;;;11.82;5.75;;;;;;;;;;5025664;28;20116;-73
2023/04/27 05:54:18;;;;;;;11.73;5.15;;;;;;;;;;4994396;28;21008;-72
2023/04/27 05:56:43;;;;;;;15.55;5.35;;;;;;;;;;4993559;28;20050;-71
2023/04/27 05:59:08;;;;;;;8.52;4.70;;;;;;;;;;5014492;28;20155;-71
2023/04/27 06:01:34;;;;;;;13.32;4.43;;;;;;;;;;5023545;28;20069;-72
2023/04/27 06:04:00;;;;;;;12.20;5.40;;;;;;;;;;4994154;28;20060;-72
2023/04/27 06:06:26;;;;;;;8.77;5.18;;;;;;;;;;4992719;28;20033;-70
2023/04/27 06:08:52;;;;;;;14.32;6.30;;;;;;;;;;4989121;28;20226;-71
2023/04/27 06:11:17;;;;;;;11.57;5.70;;;;;;;;;;5021098;28;20579;-72
2023/04/27 06:13:43;;;;;;;10.02;5.25;;;;;;;;;;4990665;28;20044;-72
2023/04/27 06:16:10;;;;;;;12.13;6.38;;;;;;;;;;4990810;28;20075;-71
2023/04/27 06:18:38;;;;;;;10.57;5.30;;;;;;;;;;4989301;28;20800;-71
2023/04/27 06:21:03;;;;;;;11.73;6.47;;;;;;;;;;4988496;28;20152;-71
2023/04/27 06:23:29;;;;;;;12.38;5.68;;;;;;;;;;5020094;28;20029;-71
2023/04/27 06:25:54;;;;;;;11.85;5.68;;;;;;;;;;5005801;28;20033;-72
2023/04/27 06:28:20;;;;;;;17.95;5.82;;;;;;;;;;4991492;28;20265;-69
2023/04/27 06:30:45;;;;;;;10.70;5.72;;;;;;;;;;4989450;28;20041;-72
2023/04/27 06:33:12;;;;;;;13.20;5.80;;;;;;;;;;5022274;28;20042;-71
2023/04/27 06:35:37;;;;;;;11.57;5.53;;;;;;;;;;5011962;28;20047;-71
2023/04/27 06:38:03;;;;;;;8.93;5.03;;;;;;;;;;4992367;28;20037;-72
2023/04/27 06:40:30;;;;;;;7.25;5.10;;;;;;;;;;4995931;28;20061;-71
2023/04/27 06:42:56;;;;;;;15.57;5.45;;;;;;;;;;4991903;28;20064;-70
2023/04/27 06:45:21;;;;;;;7.32;4.82;;;;;;;;;;4987967;28;20045;-71
2023/04/27 06:47:46;;;;;;;10.43;5.00;;;;;;;;;;4986680;28;20041;-70
2023/04/27 06:50:11;;;;;;;9.85;5.03;;;;;;;;;;4988325;28;20993;-70
2023/04/27 06:52:37;;;;;;;9.70;4.35;;;;;;;;;;4988108;28;20041;-70
2023/04/27 06:55:02;;;;;;;9.57;4.00;;;;;;;;;;4990586;28;20048;-70
2023/04/27 06:57:27;;;;;;;8.93;4.20;;;;;;;;;;4988189;28;20110;-71
2023/04/27 06:59:53;;;;;;;10.07;4.10;;;;;;;;;;4986619;28;20043;-70
2023/04/27 07:02:18;;;;;;;6.85;3.50;;;;;;;;;;5019526;28;20300;-70
2023/04/27 07:04:43;;;;;;;8.20;3.70;;;;;;;;;;5021758;28;20116;-70
2023/04/27 07:07:08;;;;;;;8.52;3.63;;;;;;;;;;4991732;28;20513;-71
2023/04/27 07:09:34;;;;;;;8.00;3.70;;;;;;;;;;4987204;28;20502;-69
2023/04/27 07:12:00;;;;;;;11.65;4.00;;;;;;;;;;4991576;28;20053;-70
2023/04/27 07:14:25;;;;;;;6.15;3.42;;;;;;;;;;4987779;28;20058;-70
2023/04/27 07:16:53;;;;;;;7.85;3.40;;;;;;;;;;4985615;28;20554;-70
2023/04/27 07:19:19;;;;;;;7.05;3.45;;;;;;;;;;4987260;28;20037;-72
2023/04/27 07:21:47;;;;;;;8.48;3.10;;;;;;;;;;5015977;28;20047;-71
2023/04/27 07:24:12;;;;;;;9.18;4.05;;;;;;;;;;4986152;28;20809;-71
2023/04/27 07:26:38;;;;;;;8.60;3.67;;;;;;;;;;5007271;28;20452;-70
2023/04/27 07:29:03;;;;;;;10.93;3.90;;;;;;;;;;4984935;28;20126;-73
2023/04/27 07:31:28;;;;;;;8.80;3.17;;;;;;;;;;5014607;28;20033;-70
2023/04/27 07:33:59;;;;;;;8.35;3.33;;;;;;;;;;5004190;28;20044;-70
2023/04/27 07:36:25;;;;;;;8.60;3.58;;;;;;;;;;4982554;28;20209;-70
2023/04/27 07:38:51;;;;;;;7.95;2.70;;;;;;;;;;4985170;28;20033;-70
2023/04/27 07:41:16;;;;;;;9.52;3.03;;;;;;;;;;5015878;28;20379;-69
2023/04/27 07:43:42;;;;;;;9.43;3.15;;;;;;;;;;5016309;28;20022;-69
2023/04/27 07:46:10;;;;;;;5.45;2.58;;;;;;;;;;4984535;28;20026;-69
2023/04/27 07:48:36;;;;;;;6.88;2.85;;;;;;;;;;5015390;28;20131;-70
2023/04/27 07:51:01;;;;;;;6.93;3.00;;;;;;;;;;4984397;28;20585;-70
2023/04/27 07:53:26;;;;;;;8.80;2.90;;;;;;;;;;4985307;28;20033;-70
2023/04/27 07:55:52;;;;;;;8.38;3.30;;;;;;;;;;4984431;28;20137;-70
2023/04/27 07:58:18;;;;;;;6.72;3.17;;;;;;;;;;4984692;28;20276;-69
2023/04/27 08:00:44;;;;;;;6.10;2.20;;;;;;;;;;4987463;28;20879;-68
2023/04/27 08:03:09;;;;;;;6.07;2.35;;;;;;;;;;4987628;28;20125;-69
2023/04/27 08:05:36;;;;;;;6.65;2.85;;;;;;;;;;4990165;28;20030;-67
2023/04/27 08:08:02;;;;;;;7.03;2.65;;;;;;;;;;5022750;28;20200;-69
2023/04/27 08:10:28;;;;;;;4.63;2.33;;;;;;;;;;4973800;28;20858;-68
2023/04/27 08:12:53;;;;;;;7.22;4.70;;;;;;;;;;4975413;28;20068;-69
2023/04/27 08:15:19;;;;;;;6.50;3.80;;;;;;;;;;4996567;28;20044;-71
2023/04/27 08:17:46;;;;;;;8.90;3.13;;;;;;;;;;4999949;28;21173;-68
2023/04/27 08:20:11;;;;;;;10.30;4.72;;;;;;;;;;4970614;28;20056;-70
2023/04/27 08:22:37;;;;;;;4.57;2.60;;;;;;;;;;4970860;28;20068;-69
2023/04/27 08:25:03;;;;;;;7.50;2.50;;;;;;;;;;4976141;28;20038;-70
2023/04/27 08:27:28;;;;;;;5.32;2.58;;;;;;;;;;4969813;28;20825;-71
2023/04/27 08:29:54;;;;;;;7.00;3.03;;;;;;;;;;4970566;28;20046;-69
2023/04/27 08:32:19;;;;;;;6.65;2.55;;;;;;;;;;4967855;28;22459;-70
2023/04/27 08:34:45;;;;;;;6.47;2.70;;;;;;;;;;4969232;28;20038;-69
2023/04/27 08:37:10;;;;;;;6.00;2.60;;;;;;;;;;4971179;28;20092;-69
2023/04/27 08:39:38;;;;;;;9.25;3.20;;;;;;;;;;4976242;28;20108;-70
2023/04/27 08:42:10;;;;;;;3.92;2.67;;;;;;;;;;4967949;28;20145;-69
2023/04/27 08:44:39;;;;;;;4.75;2.30;;;;;;;;;;4968946;28;20033;-69
2023/04/27 08:47:04;;;;;;;6.75;2.70;;;;;;;;;;4970009;28;20048;-70
2023/04/27 08:49:29;;;;;;;8.15;3.85;;;;;;;;;;4977378;28;20037;-70
2023/04/27 08:51:54;;;;;;;9.05;4.50;;;;;;;;;;4987202;28;20038;-69
2023/04/27 08:54:20;;;;;;;4.78;2.63;;;;;;;;;;4970391;28;20034;-70
2023/04/27 08:56:45;;;;;;;6.30;2.67;;;;;;;;;;4969898;28;20030;-71
2023/04/27 08:59:14;;;;;;;6.80;3.38;;;;;;;;;;5000919;28;20033;-70
2023/04/27 09:01:49;;;;;;;6.38;2.70;;;;;;;;;;4967945;28;20049;-69
2023/04/27 09:04:16;;;;;;;8.77;3.28;;;;;;;;;;4970286;28;20961;-71
2023/04/27 09:06:41;;;;;;;8.18;4.10;;;;;;;;;;4983846;28;20045;-70
2023/04/27 09:09:07;;;;;;;5.82;3.25;;;;;;;;;;4971119;28;20049;-71
2023/04/27 09:11:34;;;;;;;7.03;3.38;;;;;;;;;;5000654;28;20054;-69
2023/04/27 09:14:05;;;;;;;7.57;3.70;;;;;;;;;;4967154;28;20754;-69
2023/04/27 09:16:31;;;;;;;6.35;3.38;;;;;;;;;;4968713;28;20963;-69
2023/04/27 09:18:57;;;;;;;6.90;3.90;;;;;;;;;;5006709;28;20033;-68
2023/04/27 09:21:26;;;;;;;7.18;3.35;;;;;;;;;;4987465;28;20025;-71
2023/04/27 09:23:54;;;;;;;7.72;3.67;;;;;;;;;;4998085;28;20034;-70
2023/04/27 09:26:21;;;;;;;8.32;4.50;;;;;;;;;;4988629;28;20048;-71
2023/04/27 09:28:50;;;;;;;8.38;4.35;;;;;;;;;;4989246;28;20038;-69
2023/04/27 09:31:17;;;;;;;7.90;4.30;;;;;;;;;;4989830;28;20119;-71
2023/04/27 09:33:44;;;;;;;9.57;3.97;;;;;;;;;;5018246;28;20369;-70
2023/04/27 09:36:10;;;;;;;9.02;4.38;;;;;;;;;;4989375;28;20034;-71
2023/04/27 09:38:35;;;;;;;9.07;4.78;;;;;;;;;;5003770;28;20137;-71
2023/04/27 09:41:01;;;;;;;6.97;3.88;;;;;;;;;;4993018;28;20159;-69
2023/04/27 09:43:27;;;;;;;6.63;3.80;;;;;;;;;;4989041;28;20021;-70
2023/04/27 09:45:56;;;;;;;13.02;4.97;;;;;;;;;;4985690;28;20136;-70
2023/04/27 09:48:22;;;;;;;9.63;5.18;;;;;;;;;;4988915;28;20072;-69
2023/04/27 09:50:48;;;;;;;9.60;4.10;;;;;;;;;;4988979;28;20659;-71
2023/04/27 09:53:18;;;;;;;7.30;4.40;;;;;;;;;;4987960;28;20032;-72
2023/04/27 09:55:49;;;;;;;7.82;4.18;;;;;;;;;;4991740;28;20036;-71
2023/04/27 09:58:30;;;;;;;7.50;4.47;;;;;;;;;;4993854;28;20127;-71
2023/04/27 10:01:14;;;;;;;10.07;5.20;;;;;;;;;;4992282;28;20057;-70
2023/04/27 10:03:58;;;;;;;9.20;4.70;;;;;;;;;;5021313;28;20029;-70
2023/04/27 10:06:42;;;;;;;11.15;5.40;;;;;;;;;;4991409;28;20895;-69
2023/04/27 10:09:08;;;;;;;11.63;4.80;;;;;;;;;;4990387;28;20084;-70
2023/04/27 10:11:39;;;;;;;8.55;4.25;;;;;;;;;;4989928;28;20084;-69
2023/04/27 10:14:08;;;;;;;11.18;4.95;;;;;;;;;;4991552;28;20045;-69
2023/04/27 10:16:43;;;;;;;7.68;3.88;;;;;;;;;;5024134;28;20042;-69
2023/04/27 10:19:08;;;;;;;6.38;3.88;;;;;;;;;;5021936;28;20041;-70
2023/04/27 10:21:36;;;;;;;7.07;4.22;;;;;;;;;;4992481;28;20041;-68
2023/04/27 10:24:08;;;;;;;9.93;4.47;;;;;;;;;;4991581;28;20047;-70
2023/04/27 10:26:33;;;;;;;8.40;4.10;;;;;;;;;;4993657;28;20042;-70
2023/04/27 10:29:06;;;;;;;9.60;4.22;;;;;;;;;;4995343;28;20072;-69
2023/04/27 10:31:32;;;;;;;7.55;4.57;;;;;;;;;;4992896;28;20745;-71
2023/04/27 10:34:10;;;;;;;7.35;4.20;;;;;;;;;;4987828;28;20091;-70
2023/04/27 10:36:36;;;;;;;8.05;3.92;;;;;;;;;;5005834;28;20025;-68
2023/04/27 10:39:12;;;;;;;6.22;3.92;;;;;;;;;;4990467;28;20034;-69
2023/04/27 10:41:37;;;;;;;11.43;4.90;;;;;;;;;;5020935;28;20041;-70
2023/04/27 10:44:12;;;;;;;11.77;4.88;;;;;;;;;;4989470;28;20126;-70
2023/04/27 10:46:48;;;;;;;9.77;4.35;;;;;;;;;;4986079;28;20052;-72
2023/04/27 10:49:17;;;;;;;7.35;4.50;;;;;;;;;;4986778;28;20526;-68
2023/04/27 10:51:45;;;;;;;11.90;5.10;;;;;;;;;;4990865;28;20040;-69
2023/04/27 10:54:13;;;;;;;13.93;5.68;;;;;;;;;;4990172;28;20087;-68
2023/04/27 10:56:39;;;;;;;8.50;4.85;;;;;;;;;;4990871;28;20144;-68
2023/04/27 10:59:05;;;;;;;10.65;5.30;;;;;;;;;;5022052;28;20072;-70
2023/04/27 11:01:31;;;;;;;7.88;4.70;;;;;;;;;;4986758;28;20068;-70
2023/04/27 11:03:59;;;;;;;9.13;4.50;;;;;;;;;;4992789;28;20040;-71
2023/04/27 11:06:26;;;;;;;7.20;4.30;;;;;;;;;;5014772;28;20033;-70
2023/04/27 11:08:52;;;;;;;7.18;4.60;;;;;;;;;;5015603;28;20727;-70
2023/04/27 11:11:18;;;;;;;8.57;4.85;;;;;;;;;;4985613;28;20073;-70
2023/04/27 11:13:43;;;;;;;8.05;4.57;;;;;;;;;;4982133;28;20267;-71
2023/04/27 11:16:11;;;;;;;8.35;4.93;;;;;;;;;;4984848;28;20095;-71
2023/04/27 11:18:39;;;;;;;7.40;4.45;;;;;;;;;;4985324;28;20112;-71
2023/04/27 11:21:07;;;;;;;8.60;4.70;;;;;;;;;;5014970;28;20047;-71
2023/04/27 11:23:38;;;;;;;10.15;4.70;;;;;;;;;;5015824;28;20124;-70
2023/04/27 11:26:10;;;;;;;6.32;4.10;;;;;;;;;;4972715;28;20026;-70
2023/04/27 11:28:36;;;;;;;8.32;4.10;;;;;;;;;;4990564;28;20636;-70
2023/04/27 11:31:03;;;;;;;6.95;3.97;;;;;;;;;;4982673;28;20309;-71
2023/04/27 11:33:31;;;;;;;6.47;4.22;;;;;;;;;;4985323;28;20063;-70
2023/04/27 11:35:57;;;;;;;7.05;4.43;;;;;;;;;;4984956;28;20037;-70
2023/04/27 11:38:25;;;;;;;5.88;4.38;;;;;;;;;;4984771;28;20065;-71
2023/04/27 11:40:59;;;;;;;10.80;4.50;;;;;;;;;;4991283;28;20347;-71
2023/04/27 11:43:25;;;;;;;9.43;4.53;;;;;;;;;;5017797;28;20445;-70
2023/04/27 11:45:51;;;;;;;8.90;4.20;;;;;;;;;;5017285;28;20052;-71
2023/04/27 11:48:18;;;;;;;6.32;4.20;;;;;;;;;;4989427;28;20042;-70
2023/04/27 11:50:47;;;;;;;7.88;4.10;;;;;;;;;;4988347;28;20049;-73
2023/04/27 11:53:15;;;;;;;7.68;4.68;;;;;;;;;;5015197;28;20581;-71
2023/04/27 11:55:44;;;;;;;12.18;4.60;;;;;;;;;;5015202;28;20036;-72
2023/04/27 11:58:13;;;;;;;7.00;4.07;;;;;;;;;;4992832;28;20049;-72
2023/04/27 12:00:39;;;;;;;8.75;4.47;;;;;;;;;;4998408;28;20037;-72
2023/04/27 12:03:04;;;;;;;8.65;4.53;;;;;;;;;;4985001;28;20061;-72
2023/04/27 12:05:30;;;;;;;8.52;5.20;;;;;;;;;;4985538;28;20644;-71
2023/04/27 12:07:56;;;;;;;7.55;4.47;;;;;;;;;;5013198;28;20228;-72
2023/04/27 12:10:21;;;;;;;7.20;4.45;;;;;;;;;;4984841;28;20049;-72
2023/04/27 12:12:46;;;;;;;8.95;4.05;;;;;;;;;;4986634;28;20045;-72
2023/04/27 12:15:15;;;;;;;6.57;4.50;;;;;;;;;;4984159;28;20045;-72
2023/04/27 12:17:40;;;;;;;10.15;4.85;;;;;;;;;;4985589;28;20299;-72
2023/04/27 12:20:06;;;;;;;8.18;4.35;;;;;;;;;;5012885;28;20513;-71
2023/04/27 12:22:32;;;;;;;6.57;4.15;;;;;;;;;;4985203;28;20148;-70
2023/04/27 12:24:57;;;;;;;6.07;4.22;;;;;;;;;;5016335;28;20029;-71
2023/04/27 12:27:22;;;;;;;8.25;4.32;;;;;;;;;;5016137;28;20552;-71
2023/04/27 12:29:48;;;;;;;7.75;4.55;;;;;;;;;;4986809;28;20076;-71
2023/04/27 12:32:13;;;;;;;9.05;4.50;;;;;;;;;;4983978;28;20060;-72
2023/04/27 12:34:38;;;;;;;8.23;4.15;;;;;;;;;;4986625;28;20262;-72
2023/04/27 12:37:06;;;;;;;10.63;4.22;;;;;;;;;;5019709;28;20071;-72
2023/04/27 12:39:34;;;;;;;7.93;4.90;;;;;;;;;;5016525;28;20685;-71
2023/04/27 12:41:59;;;;;;;13.95;5.38;;;;;;;;;;5016194;28;20029;-71
2023/04/27 12:44:25;;;;;;;8.43;4.55;;;;;;;;;;4984619;28;20540;-71
2023/04/27 12:46:53;;;;;;;8.00;5.00;;;;;;;;;;4986428;28;20220;-72
2023/04/27 12:49:18;;;;;;;6.60;5.25;;;;;;;;;;5015013;28;20045;-71
2023/04/27 12:51:46;;;;;;;8.65;5.00;;;;;;;;;;4987782;28;20114;-72
2023/04/27 12:54:12;;;;;;;7.85;4.95;;;;;;;;;;4990874;28;20041;-72
2023/04/27 12:56:40;;;;;;;8.00;5.50;;;;;;;;;;5020069;28;20072;-72
2023/04/27 12:59:06;;;;;;;10.35;5.13;;;;;;;;;;5021337;28;20034;-71
2023/04/27 13:01:32;;;;;;;9.93;5.03;;;;;;;;;;5016945;28;20037;-72
2023/04/27 13:04:00;;;;;;;11.50;5.47;;;;;;;;;;4988787;28;20034;-71
2023/04/27 13:06:26;;;;;;;7.68;5.28;;;;;;;;;;5005944;28;20747;-73
2023/04/27 13:08:51;;;;;;;10.60;5.30;;;;;;;;;;4987969;28;20044;-72
2023/04/27 13:11:19;;;;;;;7.18;5.25;;;;;;;;;;4988749;28;20041;-71
2023/04/27 13:13:45;;;;;;;10.23;5.90;;;;;;;;;;4988670;28;20026;-71
2023/04/27 13:16:11;;;;;;;9.35;5.45;;;;;;;;;;4986521;28;20034;-71
2023/04/27 13:18:36;;;;;;;8.70;5.32;;;;;;;;;;4987308;28;20041;-71
2023/04/27 13:21:02;;;;;;;8.88;5.72;;;;;;;;;;5021476;28;20084;-73
2023/04/27 13:23:29;;;;;;;8.82;5.75;;;;;;;;;;5018355;28;20037;-72
2023/04/27 13:25:55;;;;;;;9.80;5.05;;;;;;;;;;4988893;28;20026;-72
2023/04/27 13:28:20;;;;;;;12.45;5.32;;;;;;;;;;4986148;28;20549;-72
2023/04/27 13:30:47;;;;;;;8.63;5.40;;;;;;;;;;4992605;28;20441;-71
2023/04/27 13:33:16;;;;;;;9.65;5.95;;;;;;;;;;5006165;28;20053;-73
2023/04/27 13:35:41;;;;;;;8.10;4.95;;;;;;;;;;5008062;28;20722;-71
2023/04/27 13:38:09;;;;;;;7.38;5.25;;;;;;;;;;5006699;28;20118;-68
2023/04/27 13:40:35;;;;;;;9.25;5.60;;;;;;;;;;5010154;28;20490;-74
2023/04/27 13:43:00;;;;;;;13.13;6.18;;;;;;;;;;5040237;28;20033;-71
2023/04/27 13:45:25;;;;;;;9.68;5.60;;;;;;;;;;5008176;28;20048;-72
2023/04/27 13:47:53;;;;;;;12.43;6.10;;;;;;;;;;5007235;28;20471;-70
2023/04/27 13:50:18;;;;;;;10.27;6.18;;;;;;;;;;5007290;28;20156;-73
2023/04/27 13:52:44;;;;;;;10.05;6.00;;;;;;;;;;5038284;28;20044;-73
2023/04/27 13:55:10;;;;;;;11.52;5.95;;;;;;;;;;5007885;28;20489;-71
2023/04/27 13:57:37;;;;;;;10.45;6.28;;;;;;;;;;5003819;28;20041;-74
2023/04/27 14:00:06;;;;;;;9.95;6.25;;;;;;;;;;5004996;28;20695;-73
2023/04/27 14:02:32;;;;;;;9.98;6.18;;;;;;;;;;5006731;28;20065;-75
2023/04/27 14:04:57;;;;;;;9.63;5.78;;;;;;;;;;5006134;28;20044;-73
2023/04/27 14:07:22;;;;;;;11.23;5.22;;;;;;;;;;5038363;28;20762;-74
2023/04/27 14:09:48;;;;;;;9.02;5.80;;;;;;;;;;5034436;28;20102;-73
2023/04/27 14:12:13;;;;;;;8.60;5.47;;;;;;;;;;5026452;28;20042;-75
2023/04/27 14:14:38;;;;;;;7.65;5.45;;;;;;;;;;5009549;28;20029;-73
2023/04/27 14:17:04;;;;;;;8.60;5.47;;;;;;;;;;5008033;28;20964;-71
2023/04/27 14:19:32;;;;;;;10.48;5.70;;;;;;;;;;5007385;28;20129;-75
2023/04/27 14:22:00;;;;;;;9.57;5.88;;;;;;;;;;5041018;28;20909;-75
2023/04/27 14:24:25;;;;;;;9.55;5.47;;;;;;;;;;5013725;28;20729;-72
2023/04/27 14:26:50;;;;;;;10.43;5.97;;;;;;;;;;5011132;28;20037;-75
2023/04/27 14:29:19;;;;;;;11.27;5.53;;;;;;;;;;5009565;28;20080;-74
2023/04/27 14:31:45;;;;;;;9.43;5.40;;;;;;;;;;5009240;28;20034;-76